sensor_id;sensor_type;location;lat;lon;timestamp;P1;durP1;ratioP1;P2;durP2;ratioP2
68938;SDS011;59064;45.294;11.816;2023-03-31T00:00:28;32.60;;;21.80;;
68938;SDS011;59064;45.294;11.816;2023-03-31T00:02:55;30.70;;;19.90;;
68938;SDS011;59064;45.294;11.816;2023-03-31T00:05:21;28.50;;;18.80;;
68938;SDS011;59064;45.294;11.816;2023-03-31T00:07:52;30.60;;;18.80;;
68938;SDS011;59064;45.294;11.816;2023-03-31T00:10:25;33.80;;;20.60;;
68938;SDS011;59064;45.294;11.816;2023-03-31T00:12:52;33.20;;;21.50;;
68938;SDS011;59064;45.294;11.816;2023-03-31T00:15:17;29.10;;;19.70;;
68938;SDS011;59064;45.294;11.816;2023-03-31T00:17:43;32.80;;;21.50;;
68938;SDS011;59064;45.294;11.816;2023-03-31T00:20:08;35.50;;;23.00;;
68938;SDS011;59064;45.294;11.816;2023-03-31T00:22:36;33.60;;;22.40;;
68938;SDS011;59064;45.294;11.816;2023-03-31T00:25:03;33.20;;;22.50;;
68938;SDS011;59064;45.294;11.816;2023-03-31T00:27:29;37.60;;;22.80;;
68938;SDS011;59064;45.294;11.816;2023-03-31T00:29:55;35.10;;;22.90;;
68938;SDS011;59064;45.294;11.816;2023-03-31T00:32:20;35.70;;;23.20;;
68938;SDS011;59064;45.294;11.816;2023-03-31T00:34:46;31.60;;;20.30;;
68938;SDS011;59064;45.294;11.816;2023-03-31T00:37:11;28.10;;;18.80;;
68938;SDS011;59064;45.294;11.816;2023-03-31T00:39:38;33.50;;;21.90;;
68938;SDS011;59064;45.294;11.816;2023-03-31T00:42:04;30.10;;;18.80;;
68938;SDS011;59064;45.294;11.816;2023-03-31T00:44:30;34.40;;;18.50;;
68938;SDS011;59064;45.294;11.816;2023-03-31T00:49:34;35.50;;;20.80;;
68938;SDS011;59064;45.294;11.816;2023-03-31T00:54:59;29.90;;;19.10;;
68938;SDS011;59064;45.294;11.816;2023-03-31T00:57:32;28.80;;;20.10;;
68938;SDS011;59064;45.294;11.816;2023-03-31T01:00:04;28.20;;;19.10;;
68938;SDS011;59064;45.294;11.816;2023-03-31T01:02:54;31.70;;;21.90;;
68938;SDS011;59064;45.294;11.816;2023-03-31T01:05:24;30.80;;;20.70;;
68938;SDS011;59064;45.294;11.816;2023-03-31T01:07:53;35.90;;;23.10;;
68938;SDS011;59064;45.294;11.816;2023-03-31T01:10:20;30.80;;;22.30;;
68938;SDS011;59064;45.294;11.816;2023-03-31T01:12:47;34.00;;;21.90;;
68938;SDS011;59064;45.294;11.816;2023-03-31T01:15:16;39.50;;;24.30;;
68938;SDS011;59064;45.294;11.816;2023-03-31T01:17:42;36.40;;;21.90;;
68938;SDS011;59064;45.294;11.816;2023-03-31T01:33:42;35.40;;;23.10;;
68938;SDS011;59064;45.294;11.816;2023-03-31T01:36:36;32.70;;;22.40;;
68938;SDS011;59064;45.294;11.816;2023-03-31T01:39:49;37.00;;;21.80;;
68938;SDS011;59064;45.294;11.816;2023-03-31T01:42:34;34.80;;;23.80;;
68938;SDS011;59064;45.294;11.816;2023-03-31T01:50:46;39.90;;;23.10;;
68938;SDS011;59064;45.294;11.816;2023-03-31T01:55:57;35.30;;;23.60;;
68938;SDS011;59064;45.294;11.816;2023-03-31T01:58:25;36.40;;;23.00;;
68938;SDS011;59064;45.294;11.816;2023-03-31T02:01:05;38.00;;;23.70;;
68938;SDS011;59064;45.294;11.816;2023-03-31T02:04:00;34.60;;;23.20;;
68938;SDS011;59064;45.294;11.816;2023-03-31T02:06:33;32.10;;;22.40;;
68938;SDS011;59064;45.294;11.816;2023-03-31T02:09:05;32.70;;;21.40;;
68938;SDS011;59064;45.294;11.816;2023-03-31T02:11:34;30.40;;;20.20;;
68938;SDS011;59064;45.294;11.816;2023-03-31T02:14:03;34.10;;;21.70;;
68938;SDS011;59064;45.294;11.816;2023-03-31T02:16:33;31.00;;;20.80;;
68938;SDS011;59064;45.294;11.816;2023-03-31T02:19:05;34.70;;;22.90;;
68938;SDS011;59064;45.294;11.816;2023-03-31T02:21:34;38.20;;;23.40;;
68938;SDS011;59064;45.294;11.816;2023-03-31T02:24:06;37.10;;;23.30;;
68938;SDS011;59064;45.294;11.816;2023-03-31T02:26:40;38.40;;;23.60;;
68938;SDS011;59064;45.294;11.816;2023-03-31T02:29:13;32.20;;;22.70;;
68938;SDS011;59064;45.294;11.816;2023-03-31T02:34:12;35.60;;;23.00;;
68938;SDS011;59064;45.294;11.816;2023-03-31T02:36:39;35.40;;;22.00;;
68938;SDS011;59064;45.294;11.816;2023-03-31T02:39:11;36.60;;;24.60;;
68938;SDS011;59064;45.294;11.816;2023-03-31T02:41:40;38.90;;;23.80;;
68938;SDS011;59064;45.294;11.816;2023-03-31T02:44:07;35.10;;;22.70;;
68938;SDS011;59064;45.294;11.816;2023-03-31T02:46:34;39.60;;;25.10;;
68938;SDS011;59064;45.294;11.816;2023-03-31T02:49:01;36.80;;;24.80;;
68938;SDS011;59064;45.294;11.816;2023-03-31T03:08:16;34.40;;;23.70;;
68938;SDS011;59064;45.294;11.816;2023-03-31T03:16:36;34.50;;;23.90;;
68938;SDS011;59064;45.294;11.816;2023-03-31T03:19:07;37.40;;;24.10;;
68938;SDS011;59064;45.294;11.816;2023-03-31T03:21:33;40.00;;;25.30;;
68938;SDS011;59064;45.294;11.816;2023-03-31T03:24:00;38.50;;;23.90;;
68938;SDS011;59064;45.294;11.816;2023-03-31T03:26:26;37.90;;;25.30;;
68938;SDS011;59064;45.294;11.816;2023-03-31T03:28:53;36.30;;;24.40;;
68938;SDS011;59064;45.294;11.816;2023-03-31T03:31:19;39.00;;;25.30;;
68938;SDS011;59064;45.294;11.816;2023-03-31T03:33:48;36.50;;;25.10;;
68938;SDS011;59064;45.294;11.816;2023-03-31T03:36:14;37.80;;;24.40;;
68938;SDS011;59064;45.294;11.816;2023-03-31T03:38:40;40.00;;;23.20;;
68938;SDS011;59064;45.294;11.816;2023-03-31T03:41:05;38.90;;;25.70;;
68938;SDS011;59064;45.294;11.816;2023-03-31T03:43:31;40.30;;;25.10;;
68938;SDS011;59064;45.294;11.816;2023-03-31T03:45:57;35.30;;;24.60;;
68938;SDS011;59064;45.294;11.816;2023-03-31T03:48:23;37.90;;;24.90;;
68938;SDS011;59064;45.294;11.816;2023-03-31T03:50:48;37.70;;;24.20;;
68938;SDS011;59064;45.294;11.816;2023-03-31T03:53:14;34.30;;;22.30;;
68938;SDS011;59064;45.294;11.816;2023-03-31T03:55:40;30.10;;;19.20;;
68938;SDS011;59064;45.294;11.816;2023-03-31T03:58:06;35.50;;;20.80;;
68938;SDS011;59064;45.294;11.816;2023-03-31T04:00:32;36.70;;;22.50;;
68938;SDS011;59064;45.294;11.816;2023-03-31T04:02:58;32.50;;;21.60;;
68938;SDS011;59064;45.294;11.816;2023-03-31T04:05:23;35.70;;;21.80;;
68938;SDS011;59064;45.294;11.816;2023-03-31T04:07:49;40.60;;;24.80;;
68938;SDS011;59064;45.294;11.816;2023-03-31T04:10:15;41.80;;;26.80;;
68938;SDS011;59064;45.294;11.816;2023-03-31T04:12:40;42.10;;;26.60;;
68938;SDS011;59064;45.294;11.816;2023-03-31T04:15:06;39.20;;;26.30;;
68938;SDS011;59064;45.294;11.816;2023-03-31T04:17:32;37.50;;;23.80;;
68938;SDS011;59064;45.294;11.816;2023-03-31T04:20:03;38.30;;;23.90;;
68938;SDS011;59064;45.294;11.816;2023-03-31T04:22:33;34.90;;;24.00;;
68938;SDS011;59064;45.294;11.816;2023-03-31T04:25:03;44.90;;;27.50;;
68938;SDS011;59064;45.294;11.816;2023-03-31T04:27:34;42.20;;;26.20;;
68938;SDS011;59064;45.294;11.816;2023-03-31T04:30:00;40.80;;;25.40;;
68938;SDS011;59064;45.294;11.816;2023-03-31T04:32:26;40.60;;;25.60;;
68938;SDS011;59064;45.294;11.816;2023-03-31T04:34:52;38.30;;;24.00;;
68938;SDS011;59064;45.294;11.816;2023-03-31T04:37:28;40.20;;;26.40;;
68938;SDS011;59064;45.294;11.816;2023-03-31T04:39:59;41.10;;;25.60;;
68938;SDS011;59064;45.294;11.816;2023-03-31T04:42:31;42.70;;;25.90;;
68938;SDS011;59064;45.294;11.816;2023-03-31T04:44:57;45.90;;;27.00;;
68938;SDS011;59064;45.294;11.816;2023-03-31T04:47:22;41.80;;;25.60;;
68938;SDS011;59064;45.294;11.816;2023-03-31T04:49:48;41.70;;;26.90;;
68938;SDS011;59064;45.294;11.816;2023-03-31T04:52:13;41.60;;;26.00;;
68938;SDS011;59064;45.294;11.816;2023-03-31T04:54:39;38.20;;;25.80;;
68938;SDS011;59064;45.294;11.816;2023-03-31T04:57:04;42.80;;;26.60;;
68938;SDS011;59064;45.294;11.816;2023-03-31T04:59:30;40.30;;;25.20;;
68938;SDS011;59064;45.294;11.816;2023-03-31T05:01:55;36.90;;;24.60;;
68938;SDS011;59064;45.294;11.816;2023-03-31T05:04:21;39.00;;;25.40;;
68938;SDS011;59064;45.294;11.816;2023-03-31T05:06:46;42.20;;;27.00;;
68938;SDS011;59064;45.294;11.816;2023-03-31T05:09:12;46.30;;;27.40;;
68938;SDS011;59064;45.294;11.816;2023-03-31T05:11:37;43.70;;;26.10;;
68938;SDS011;59064;45.294;11.816;2023-03-31T05:14:03;36.70;;;24.70;;
68938;SDS011;59064;45.294;11.816;2023-03-31T05:16:28;43.90;;;26.50;;
68938;SDS011;59064;45.294;11.816;2023-03-31T05:18:55;40.30;;;25.60;;
68938;SDS011;59064;45.294;11.816;2023-03-31T05:21:20;43.30;;;27.00;;
68938;SDS011;59064;45.294;11.816;2023-03-31T05:23:46;40.70;;;26.90;;
68938;SDS011;59064;45.294;11.816;2023-03-31T05:26:12;42.20;;;24.70;;
68938;SDS011;59064;45.294;11.816;2023-03-31T05:28:38;43.10;;;25.10;;
68938;SDS011;59064;45.294;11.816;2023-03-31T05:31:04;38.00;;;23.50;;
68938;SDS011;59064;45.294;11.816;2023-03-31T05:33:30;35.90;;;24.10;;
68938;SDS011;59064;45.294;11.816;2023-03-31T05:35:56;35.70;;;23.30;;
68938;SDS011;59064;45.294;11.816;2023-03-31T05:38:24;35.90;;;22.90;;
68938;SDS011;59064;45.294;11.816;2023-03-31T05:40:53;37.40;;;24.00;;
68938;SDS011;59064;45.294;11.816;2023-03-31T05:43:19;39.00;;;24.40;;
68938;SDS011;59064;45.294;11.816;2023-03-31T05:45:45;35.50;;;23.60;;
68938;SDS011;59064;45.294;11.816;2023-03-31T05:48:10;38.10;;;24.40;;
68938;SDS011;59064;45.294;11.816;2023-03-31T05:50:36;40.40;;;25.50;;
68938;SDS011;59064;45.294;11.816;2023-03-31T05:53:02;38.60;;;24.70;;
68938;SDS011;59064;45.294;11.816;2023-03-31T05:55:28;38.20;;;24.30;;
68938;SDS011;59064;45.294;11.816;2023-03-31T05:57:53;44.90;;;25.20;;
68938;SDS011;59064;45.294;11.816;2023-03-31T06:00:19;37.30;;;24.00;;
68938;SDS011;59064;45.294;11.816;2023-03-31T06:02:45;38.30;;;25.00;;
68938;SDS011;59064;45.294;11.816;2023-03-31T06:05:10;36.20;;;23.30;;
68938;SDS011;59064;45.294;11.816;2023-03-31T06:07:36;39.60;;;23.90;;
68938;SDS011;59064;45.294;11.816;2023-03-31T06:10:02;33.90;;;23.30;;
68938;SDS011;59064;45.294;11.816;2023-03-31T06:12:28;38.60;;;24.40;;
68938;SDS011;59064;45.294;11.816;2023-03-31T06:14:53;34.60;;;23.00;;
68938;SDS011;59064;45.294;11.816;2023-03-31T06:17:19;37.50;;;23.80;;
68938;SDS011;59064;45.294;11.816;2023-03-31T06:19:45;35.00;;;23.90;;
68938;SDS011;59064;45.294;11.816;2023-03-31T06:22:10;41.10;;;24.90;;
68938;SDS011;59064;45.294;11.816;2023-03-31T06:24:36;38.70;;;23.80;;
68938;SDS011;59064;45.294;11.816;2023-03-31T06:27:01;37.20;;;23.70;;
68938;SDS011;59064;45.294;11.816;2023-03-31T06:29:27;39.60;;;24.90;;
68938;SDS011;59064;45.294;11.816;2023-03-31T06:31:53;32.10;;;21.10;;
68938;SDS011;59064;45.294;11.816;2023-03-31T06:34:19;37.10;;;23.70;;
68938;SDS011;59064;45.294;11.816;2023-03-31T06:36:46;38.80;;;24.10;;
68938;SDS011;59064;45.294;11.816;2023-03-31T06:39:11;34.40;;;23.80;;
68938;SDS011;59064;45.294;11.816;2023-03-31T06:41:37;41.40;;;23.70;;
68938;SDS011;59064;45.294;11.816;2023-03-31T06:44:03;38.50;;;23.80;;
68938;SDS011;59064;45.294;11.816;2023-03-31T06:46:28;37.00;;;23.20;;
68938;SDS011;59064;45.294;11.816;2023-03-31T06:48:54;38.30;;;23.60;;
68938;SDS011;59064;45.294;11.816;2023-03-31T06:51:20;35.30;;;22.10;;
68938;SDS011;59064;45.294;11.816;2023-03-31T06:53:46;38.40;;;24.90;;
68938;SDS011;59064;45.294;11.816;2023-03-31T06:56:11;29.70;;;18.60;;
68938;SDS011;59064;45.294;11.816;2023-03-31T06:58:37;38.90;;;22.80;;
68938;SDS011;59064;45.294;11.816;2023-03-31T07:01:03;34.80;;;23.00;;
68938;SDS011;59064;45.294;11.816;2023-03-31T07:03:30;36.90;;;22.30;;
68938;SDS011;59064;45.294;11.816;2023-03-31T07:05:57;26.10;;;18.10;;
68938;SDS011;59064;45.294;11.816;2023-03-31T07:08:23;33.30;;;20.40;;
68938;SDS011;59064;45.294;11.816;2023-03-31T07:10:51;31.50;;;21.70;;
68938;SDS011;59064;45.294;11.816;2023-03-31T07:13:19;28.80;;;18.70;;
68938;SDS011;59064;45.294;11.816;2023-03-31T07:15:47;29.30;;;19.50;;
68938;SDS011;59064;45.294;11.816;2023-03-31T07:18:14;36.00;;;23.20;;
68938;SDS011;59064;45.294;11.816;2023-03-31T07:20:41;33.80;;;20.70;;
68938;SDS011;59064;45.294;11.816;2023-03-31T07:23:07;33.30;;;21.70;;
68938;SDS011;59064;45.294;11.816;2023-03-31T07:25:34;33.00;;;21.80;;
68938;SDS011;59064;45.294;11.816;2023-03-31T07:28:00;36.60;;;22.00;;
68938;SDS011;59064;45.294;11.816;2023-03-31T07:30:25;28.70;;;20.00;;
68938;SDS011;59064;45.294;11.816;2023-03-31T07:32:52;35.10;;;23.00;;
68938;SDS011;59064;45.294;11.816;2023-03-31T07:35:18;41.40;;;23.40;;
68938;SDS011;59064;45.294;11.816;2023-03-31T07:37:45;31.40;;;21.10;;
68938;SDS011;59064;45.294;11.816;2023-03-31T07:40:14;34.70;;;21.30;;
68938;SDS011;59064;45.294;11.816;2023-03-31T07:42:46;29.00;;;18.50;;
68938;SDS011;59064;45.294;11.816;2023-03-31T07:45:13;29.40;;;18.50;;
68938;SDS011;59064;45.294;11.816;2023-03-31T07:47:40;28.70;;;19.70;;
68938;SDS011;59064;45.294;11.816;2023-03-31T07:50:07;34.10;;;18.80;;
68938;SDS011;59064;45.294;11.816;2023-03-31T07:52:33;30.60;;;20.80;;
68938;SDS011;59064;45.294;11.816;2023-03-31T07:54:59;32.00;;;21.70;;
68938;SDS011;59064;45.294;11.816;2023-03-31T07:57:25;31.50;;;21.40;;
68938;SDS011;59064;45.294;11.816;2023-03-31T07:59:50;29.10;;;19.90;;
68938;SDS011;59064;45.294;11.816;2023-03-31T08:02:16;33.10;;;20.80;;
68938;SDS011;59064;45.294;11.816;2023-03-31T08:04:42;30.00;;;19.60;;
68938;SDS011;59064;45.294;11.816;2023-03-31T08:07:09;31.90;;;21.00;;
68938;SDS011;59064;45.294;11.816;2023-03-31T08:09:35;29.70;;;19.60;;
68938;SDS011;59064;45.294;11.816;2023-03-31T08:12:01;31.30;;;19.60;;
68938;SDS011;59064;45.294;11.816;2023-03-31T08:14:27;30.70;;;18.30;;
68938;SDS011;59064;45.294;11.816;2023-03-31T08:16:52;27.20;;;18.90;;
68938;SDS011;59064;45.294;11.816;2023-03-31T08:19:19;27.50;;;18.60;;
68938;SDS011;59064;45.294;11.816;2023-03-31T08:21:46;29.70;;;19.60;;
68938;SDS011;59064;45.294;11.816;2023-03-31T08:24:12;28.40;;;18.20;;
68938;SDS011;59064;45.294;11.816;2023-03-31T08:26:39;30.40;;;19.00;;
68938;SDS011;59064;45.294;11.816;2023-03-31T08:29:05;29.60;;;19.70;;
68938;SDS011;59064;45.294;11.816;2023-03-31T08:31:31;24.80;;;17.50;;
68938;SDS011;59064;45.294;11.816;2023-03-31T08:33:56;28.60;;;18.80;;
68938;SDS011;59064;45.294;11.816;2023-03-31T08:36:22;26.30;;;17.30;;
68938;SDS011;59064;45.294;11.816;2023-03-31T08:38:48;28.20;;;18.20;;
68938;SDS011;59064;45.294;11.816;2023-03-31T08:44:20;24.60;;;16.40;;
68938;SDS011;59064;45.294;11.816;2023-03-31T08:46:50;28.80;;;18.40;;
68938;SDS011;59064;45.294;11.816;2023-03-31T08:49:19;28.70;;;17.90;;
68938;SDS011;59064;45.294;11.816;2023-03-31T08:51:50;29.40;;;17.50;;
68938;SDS011;59064;45.294;11.816;2023-03-31T08:56:57;26.60;;;18.00;;
68938;SDS011;59064;45.294;11.816;2023-03-31T08:59:28;25.50;;;17.40;;
68938;SDS011;59064;45.294;11.816;2023-03-31T09:16:26;28.10;;;17.20;;
68938;SDS011;59064;45.294;11.816;2023-03-31T09:19:02;30.20;;;19.20;;
68938;SDS011;59064;45.294;11.816;2023-03-31T09:24:05;28.60;;;19.20;;
68938;SDS011;59064;45.294;11.816;2023-03-31T09:29:12;24.00;;;14.70;;
68938;SDS011;59064;45.294;11.816;2023-03-31T09:31:42;29.70;;;19.50;;
68938;SDS011;59064;45.294;11.816;2023-03-31T09:34:16;25.90;;;18.10;;
68938;SDS011;59064;45.294;11.816;2023-03-31T09:36:48;31.90;;;20.00;;
68938;SDS011;59064;45.294;11.816;2023-03-31T09:39:13;29.60;;;19.30;;
68938;SDS011;59064;45.294;11.816;2023-03-31T09:41:46;24.10;;;16.30;;
68938;SDS011;59064;45.294;11.816;2023-03-31T09:44:24;28.60;;;18.90;;
68938;SDS011;59064;45.294;11.816;2023-03-31T09:46:50;30.20;;;17.60;;
68938;SDS011;59064;45.294;11.816;2023-03-31T09:49:19;29.20;;;18.10;;
68938;SDS011;59064;45.294;11.816;2023-03-31T09:51:47;31.60;;;20.00;;
68938;SDS011;59064;45.294;11.816;2023-03-31T09:54:26;27.30;;;17.20;;
68938;SDS011;59064;45.294;11.816;2023-03-31T09:56:56;28.10;;;19.90;;
68938;SDS011;59064;45.294;11.816;2023-03-31T09:59:31;30.00;;;19.00;;
68938;SDS011;59064;45.294;11.816;2023-03-31T10:02:02;35.40;;;21.50;;
68938;SDS011;59064;45.294;11.816;2023-03-31T10:04:43;31.60;;;20.80;;
68938;SDS011;59064;45.294;11.816;2023-03-31T10:07:10;28.00;;;18.90;;
68938;SDS011;59064;45.294;11.816;2023-03-31T10:09:36;26.40;;;18.40;;
68938;SDS011;59064;45.294;11.816;2023-03-31T10:14:37;29.40;;;18.30;;
68938;SDS011;59064;45.294;11.816;2023-03-31T10:17:17;26.20;;;19.20;;
68938;SDS011;59064;45.294;11.816;2023-03-31T10:19:50;27.50;;;18.90;;
68938;SDS011;59064;45.294;11.816;2023-03-31T10:22:28;24.60;;;17.60;;
68938;SDS011;59064;45.294;11.816;2023-03-31T10:25:06;32.20;;;20.50;;
68938;SDS011;59064;45.294;11.816;2023-03-31T10:27:41;27.80;;;18.30;;
68938;SDS011;59064;45.294;11.816;2023-03-31T10:30:11;30.90;;;19.00;;
68938;SDS011;59064;45.294;11.816;2023-03-31T10:32:47;24.80;;;17.60;;
68938;SDS011;59064;45.294;11.816;2023-03-31T10:37:54;29.20;;;19.30;;
68938;SDS011;59064;45.294;11.816;2023-03-31T10:40:26;29.90;;;20.30;;
68938;SDS011;59064;45.294;11.816;2023-03-31T10:45:49;29.20;;;21.90;;
68938;SDS011;59064;45.294;11.816;2023-03-31T10:48:24;29.10;;;20.40;;
68938;SDS011;59064;45.294;11.816;2023-03-31T10:50:51;29.80;;;19.70;;
68938;SDS011;59064;45.294;11.816;2023-03-31T10:53:17;29.90;;;19.10;;
68938;SDS011;59064;45.294;11.816;2023-03-31T11:03:47;29.10;;;18.80;;
68938;SDS011;59064;45.294;11.816;2023-03-31T11:06:30;29.80;;;18.40;;
68938;SDS011;59064;45.294;11.816;2023-03-31T11:30:53;30.90;;;17.20;;
68938;SDS011;59064;45.294;11.816;2023-03-31T11:33:37;24.70;;;17.00;;
68938;SDS011;59064;45.294;11.816;2023-03-31T11:36:15;23.60;;;16.50;;
68938;SDS011;59064;45.294;11.816;2023-03-31T11:41:47;26.20;;;17.30;;
68938;SDS011;59064;45.294;11.816;2023-03-31T11:44:16;24.00;;;15.90;;
68938;SDS011;59064;45.294;11.816;2023-03-31T11:47:04;24.50;;;17.00;;
68938;SDS011;59064;45.294;11.816;2023-03-31T11:49:34;21.80;;;15.30;;
68938;SDS011;59064;45.294;11.816;2023-03-31T11:52:14;24.10;;;15.70;;
68938;SDS011;59064;45.294;11.816;2023-03-31T11:57:23;25.20;;;15.50;;
68938;SDS011;59064;45.294;11.816;2023-03-31T12:00:21;18.50;;;12.60;;
68938;SDS011;59064;45.294;11.816;2023-03-31T12:05:44;16.00;;;8.70;;
68938;SDS011;59064;45.294;11.816;2023-03-31T12:08:25;15.70;;;9.70;;
68938;SDS011;59064;45.294;11.816;2023-03-31T12:11:04;15.70;;;10.70;;
68938;SDS011;59064;45.294;11.816;2023-03-31T12:16:17;19.60;;;11.80;;
68938;SDS011;59064;45.294;11.816;2023-03-31T12:18:55;18.20;;;12.30;;
68938;SDS011;59064;45.294;11.816;2023-03-31T12:21:27;18.00;;;10.30;;
68938;SDS011;59064;45.294;11.816;2023-03-31T12:23:55;19.00;;;11.00;;
68938;SDS011;59064;45.294;11.816;2023-03-31T12:31:55;16.60;;;10.20;;
68938;SDS011;59064;45.294;11.816;2023-03-31T12:34:23;14.40;;;6.50;;
68938;SDS011;59064;45.294;11.816;2023-03-31T12:50:40;16.60;;;9.90;;
68938;SDS011;59064;45.294;11.816;2023-03-31T12:53:14;14.40;;;7.10;;
68938;SDS011;59064;45.294;11.816;2023-03-31T13:14:02;11.10;;;6.30;;
68938;SDS011;59064;45.294;11.816;2023-03-31T13:16:48;10.70;;;4.80;;
68938;SDS011;59064;45.294;11.816;2023-03-31T13:22:04;13.40;;;5.90;;
68938;SDS011;59064;45.294;11.816;2023-03-31T13:24:31;9.70;;;5.00;;
68938;SDS011;59064;45.294;11.816;2023-03-31T13:27:23;11.90;;;5.70;;
68938;SDS011;59064;45.294;11.816;2023-03-31T13:29:58;12.00;;;5.90;;
68938;SDS011;59064;45.294;11.816;2023-03-31T13:32:24;13.30;;;6.50;;
68938;SDS011;59064;45.294;11.816;2023-03-31T13:37:44;11.20;;;5.80;;
68938;SDS011;59064;45.294;11.816;2023-03-31T13:40:51;9.20;;;5.30;;
68938;SDS011;59064;45.294;11.816;2023-03-31T13:43:54;12.20;;;5.70;;
68938;SDS011;59064;45.294;11.816;2023-03-31T13:46:58;14.00;;;5.90;;
68938;SDS011;59064;45.294;11.816;2023-03-31T13:53:00;13.50;;;6.10;;
68938;SDS011;59064;45.294;11.816;2023-03-31T14:09:28;14.50;;;6.90;;
68938;SDS011;59064;45.294;11.816;2023-03-31T14:11:58;16.80;;;6.70;;
68938;SDS011;59064;45.294;11.816;2023-03-31T14:14:24;10.50;;;5.20;;
68938;SDS011;59064;45.294;11.816;2023-03-31T14:16:51;13.00;;;6.40;;
68938;SDS011;59064;45.294;11.816;2023-03-31T14:38:54;13.90;;;7.20;;
68938;SDS011;59064;45.294;11.816;2023-03-31T14:41:27;12.40;;;6.60;;
68938;SDS011;59064;45.294;11.816;2023-03-31T14:43:57;12.20;;;7.20;;
68938;SDS011;59064;45.294;11.816;2023-03-31T14:46:26;14.50;;;7.40;;
68938;SDS011;59064;45.294;11.816;2023-03-31T14:48:56;17.60;;;8.20;;
68938;SDS011;59064;45.294;11.816;2023-03-31T14:51:24;16.60;;;7.10;;
68938;SDS011;59064;45.294;11.816;2023-03-31T14:53:56;13.10;;;6.30;;
68938;SDS011;59064;45.294;11.816;2023-03-31T14:56:37;8.90;;;4.90;;
68938;SDS011;59064;45.294;11.816;2023-03-31T14:59:05;15.60;;;6.70;;
68938;SDS011;59064;45.294;11.816;2023-03-31T15:01:33;14.00;;;8.10;;
68938;SDS011;59064;45.294;11.816;2023-03-31T15:04:09;15.20;;;7.10;;
68938;SDS011;59064;45.294;11.816;2023-03-31T15:06:37;16.70;;;9.00;;
68938;SDS011;59064;45.294;11.816;2023-03-31T15:09:05;13.80;;;7.60;;
68938;SDS011;59064;45.294;11.816;2023-03-31T15:11:35;13.10;;;6.80;;
68938;SDS011;59064;45.294;11.816;2023-03-31T15:14:01;14.70;;;7.00;;
68938;SDS011;59064;45.294;11.816;2023-03-31T15:18:55;12.20;;;7.10;;
68938;SDS011;59064;45.294;11.816;2023-03-31T15:21:23;14.00;;;6.80;;
68938;SDS011;59064;45.294;11.816;2023-03-31T15:23:50;12.80;;;7.00;;
68938;SDS011;59064;45.294;11.816;2023-03-31T15:26:17;15.00;;;6.90;;
68938;SDS011;59064;45.294;11.816;2023-03-31T15:28:54;12.40;;;6.70;;
68938;SDS011;59064;45.294;11.816;2023-03-31T15:31:24;10.70;;;6.20;;
68938;SDS011;59064;45.294;11.816;2023-03-31T15:33:51;12.00;;;6.90;;
68938;SDS011;59064;45.294;11.816;2023-03-31T15:36:17;16.50;;;7.40;;
68938;SDS011;59064;45.294;11.816;2023-03-31T15:38:45;13.80;;;7.20;;
68938;SDS011;59064;45.294;11.816;2023-03-31T15:41:14;12.90;;;7.00;;
68938;SDS011;59064;45.294;11.816;2023-03-31T15:46:18;17.80;;;8.10;;
68938;SDS011;59064;45.294;11.816;2023-03-31T15:48:52;14.50;;;7.50;;
68938;SDS011;59064;45.294;11.816;2023-03-31T15:51:29;28.00;;;16.40;;
68938;SDS011;59064;45.294;11.816;2023-03-31T15:53:59;38.40;;;21.30;;
68938;SDS011;59064;45.294;11.816;2023-03-31T15:59:20;32.50;;;19.80;;
68938;SDS011;59064;45.294;11.816;2023-03-31T16:01:47;27.90;;;16.60;;
68938;SDS011;59064;45.294;11.816;2023-03-31T16:04:14;22.30;;;13.90;;
68938;SDS011;59064;45.294;11.816;2023-03-31T16:06:42;24.40;;;14.20;;
68938;SDS011;59064;45.294;11.816;2023-03-31T16:09:22;24.50;;;13.00;;
68938;SDS011;59064;45.294;11.816;2023-03-31T16:11:55;21.30;;;11.70;;
68938;SDS011;59064;45.294;11.816;2023-03-31T16:14:30;19.50;;;11.00;;
68938;SDS011;59064;45.294;11.816;2023-03-31T16:17:00;21.80;;;11.60;;
68938;SDS011;59064;45.294;11.816;2023-03-31T16:19:30;19.50;;;11.20;;
68938;SDS011;59064;45.294;11.816;2023-03-31T16:22:04;19.60;;;11.40;;
68938;SDS011;59064;45.294;11.816;2023-03-31T16:24:31;21.70;;;11.40;;
68938;SDS011;59064;45.294;11.816;2023-03-31T16:27:00;20.90;;;12.10;;
68938;SDS011;59064;45.294;11.816;2023-03-31T16:29:30;20.40;;;12.00;;
68938;SDS011;59064;45.294;11.816;2023-03-31T16:32:13;19.80;;;11.90;;
68938;SDS011;59064;45.294;11.816;2023-03-31T16:37:36;22.50;;;11.20;;
68938;SDS011;59064;45.294;11.816;2023-03-31T16:40:01;20.00;;;11.30;;
68938;SDS011;59064;45.294;11.816;2023-03-31T16:42:29;21.10;;;12.20;;
68938;SDS011;59064;45.294;11.816;2023-03-31T16:44:54;21.30;;;11.90;;
68938;SDS011;59064;45.294;11.816;2023-03-31T16:47:20;21.20;;;11.50;;
68938;SDS011;59064;45.294;11.816;2023-03-31T16:49:45;18.60;;;11.30;;
68938;SDS011;59064;45.294;11.816;2023-03-31T16:52:11;22.60;;;11.90;;
68938;SDS011;59064;45.294;11.816;2023-03-31T16:54:37;18.90;;;11.30;;
68938;SDS011;59064;45.294;11.816;2023-03-31T16:57:04;21.80;;;13.40;;
68938;SDS011;59064;45.294;11.816;2023-03-31T16:59:29;26.90;;;14.80;;
68938;SDS011;59064;45.294;11.816;2023-03-31T17:01:55;20.70;;;12.80;;
68938;SDS011;59064;45.294;11.816;2023-03-31T17:04:20;20.60;;;12.80;;
68938;SDS011;59064;45.294;11.816;2023-03-31T17:06:47;24.20;;;13.40;;
68938;SDS011;59064;45.294;11.816;2023-03-31T17:09:12;21.90;;;12.90;;
68938;SDS011;59064;45.294;11.816;2023-03-31T17:11:38;20.10;;;11.90;;
68938;SDS011;59064;45.294;11.816;2023-03-31T17:14:03;16.40;;;10.20;;
68938;SDS011;59064;45.294;11.816;2023-03-31T17:16:30;17.60;;;11.40;;
68938;SDS011;59064;45.294;11.816;2023-03-31T17:18:56;23.00;;;14.20;;
68938;SDS011;59064;45.294;11.816;2023-03-31T17:21:21;24.70;;;15.30;;
68938;SDS011;59064;45.294;11.816;2023-03-31T17:23:48;19.60;;;12.70;;
68938;SDS011;59064;45.294;11.816;2023-03-31T17:26:14;26.40;;;15.40;;
68938;SDS011;59064;45.294;11.816;2023-03-31T17:28:40;20.00;;;13.40;;
68938;SDS011;59064;45.294;11.816;2023-03-31T17:31:17;25.20;;;14.10;;
68938;SDS011;59064;45.294;11.816;2023-03-31T17:33:45;22.20;;;12.60;;
68938;SDS011;59064;45.294;11.816;2023-03-31T17:36:11;16.60;;;10.60;;
68938;SDS011;59064;45.294;11.816;2023-03-31T17:38:37;19.80;;;11.50;;
68938;SDS011;59064;45.294;11.816;2023-03-31T17:41:04;22.20;;;12.90;;
68938;SDS011;59064;45.294;11.816;2023-03-31T17:43:31;26.10;;;16.70;;
68938;SDS011;59064;45.294;11.816;2023-03-31T17:46:04;23.80;;;13.40;;
68938;SDS011;59064;45.294;11.816;2023-03-31T17:48:32;24.60;;;13.90;;
68938;SDS011;59064;45.294;11.816;2023-03-31T17:51:04;26.50;;;15.00;;
68938;SDS011;59064;45.294;11.816;2023-03-31T17:53:31;29.60;;;18.20;;
68938;SDS011;59064;45.294;11.816;2023-03-31T17:55:57;24.80;;;15.10;;
68938;SDS011;59064;45.294;11.816;2023-03-31T17:58:23;24.20;;;13.80;;
68938;SDS011;59064;45.294;11.816;2023-03-31T18:00:49;23.10;;;12.20;;